Time;durP1;ratioP1;P1;durP2;ratioP2;P2;SDS_P1;SDS_P2;PMS_P1;PMS_P2;Temp;Humidity;BMP_temperature;BMP_pressure;BME280_temperature;BME280_humidity;BME280_pressure;Samples;Min_cycle;Max_cycle;Signal;HPM_P1;HPM_P2
2023/02/15 00:01:39;;;;;;;75.65;43.22;;;;;;;-1.27;100.00;95952.56;5077172;28;20028;-74
2023/02/15 00:04:06;;;;;;;69.00;42.15;;;;;;;-1.27;100.00;95955.94;5074219;28;20027;-74
2023/02/15 00:06:32;;;;;;;74.38;43.17;;;;;;;-1.20;100.00;95957.28;5076226;28;20110;-75
2023/02/15 00:08:58;;;;;;;73.93;44.17;;;;;;;-1.21;100.00;95957.34;5055490;28;20174;-74
2023/02/15 00:14:08;;;;;;;78.40;46.03;;;;;;;-1.24;100.00;95949.88;5076550;28;20047;-75
2023/02/15 00:16:34;;;;;;;90.93;50.10;;;;;;;-1.33;100.00;95955.41;5076843;28;20123;-74
2023/02/15 00:19:01;;;;;;;94.00;50.00;;;;;;;-1.38;100.00;95957.38;5059787;28;20038;-75
2023/02/15 00:21:29;;;;;;;97.18;52.08;;;;;;;-1.32;100.00;96223.75;5055150;28;20044;-75
2023/02/15 00:23:54;;;;;;;108.07;58.63;;;;;;;-1.22;100.00;96232.63;5064891;28;20038;-75
2023/02/15 00:26:20;;;;;;;140.73;79.53;;;;;;;-1.21;100.00;96244.41;5076186;28;20032;-75
2023/02/15 00:28:45;;;;;;;146.45;79.20;;;;;;;-1.24;100.00;96245.38;5054817;28;20116;-75
2023/02/15 00:31:12;;;;;;;170.73;86.10;;;;;;;-1.20;100.00;96252.00;5059154;28;20032;-75
2023/02/15 00:33:38;;;;;;;153.55;75.45;;;;;;;-1.24;100.00;96255.56;5076420;28;20439;-75
2023/02/15 00:36:06;;;;;;;147.65;74.53;;;;;;;-1.30;100.00;96249.91;5076258;28;20048;-75
2023/02/15 00:38:32;;;;;;;137.02;70.82;;;;;;;-1.33;100.00;96245.78;5074805;28;20039;-75
2023/02/15 00:40:59;;;;;;;127.10;68.40;;;;;;;-1.33;100.00;96245.78;5075899;28;20028;-74
2023/02/15 00:43:25;;;;;;;108.10;62.05;;;;;;;-1.38;100.00;96242.63;5075139;28;20135;-74
2023/02/15 00:45:51;;;;;;;109.30;59.95;;;;;;;-1.46;100.00;96239.59;5076626;28;20401;-77
2023/02/15 00:48:16;;;;;;;101.38;57.53;;;;;;;-1.48;100.00;96243.09;5075533;28;20040;-74
2023/02/15 00:50:45;;;;;;;101.53;58.08;;;;;;;-1.46;100.00;96247.22;5058127;28;20684;-74
2023/02/15 00:53:10;;;;;;;99.68;57.95;;;;;;;-1.47;100.00;96247.28;5077460;28;20251;-74
2023/02/15 00:55:36;;;;;;;101.55;60.10;;;;;;;-1.44;100.00;96252.22;5060601;28;20481;-74
2023/02/15 00:58:02;;;;;;;97.95;57.63;;;;;;;-1.51;100.00;96241.53;5084579;28;20035;-74
2023/02/15 01:00:27;;;;;;;88.90;54.80;;;;;;;-1.45;100.00;96250.59;5083226;28;20043;-74
2023/02/15 01:02:53;;;;;;;89.43;56.15;;;;;;;-1.44;100.00;96247.13;5075552;28;20356;-74
2023/02/15 01:05:18;;;;;;;88.38;56.58;;;;;;;-1.48;100.00;96249.00;5076552;28;20461;-75
2023/02/15 01:07:44;;;;;;;86.93;51.35;;;;;;;-1.45;100.00;96245.50;5074926;28;20039;-76
2023/02/15 01:10:09;;;;;;;84.07;48.67;;;;;;;-1.49;100.00;96249.88;5081959;28;20027;-74
2023/02/15 01:12:34;;;;;;;82.40;45.90;;;;;;;-1.61;100.00;96241.06;5067228;28;20028;-74
2023/02/15 01:15:01;;;;;;;83.30;50.17;;;;;;;-1.78;100.00;96233.38;5077745;28;20034;-74
2023/02/15 01:17:27;;;;;;;78.97;46.50;;;;;;;-1.79;100.00;96236.78;5058404;28;20598;-74
2023/02/15 01:19:52;;;;;;;78.95;47.88;;;;;;;-1.71;100.00;96242.38;5059929;28;20032;-74
2023/02/15 01:22:18;;;;;;;76.05;44.63;;;;;;;-1.72;100.00;96239.88;5078722;28;20085;-74
2023/02/15 01:24:44;;;;;;;79.88;46.70;;;;;;;-1.72;100.00;96247.50;5062066;28;20168;-74
2023/02/15 01:27:09;;;;;;;79.93;46.00;;;;;;;-1.91;100.00;96252.53;5080598;28;20084;-74
2023/02/15 01:29:35;;;;;;;81.28;48.78;;;;;;;-1.93;100.00;96254.31;5079850;28;20024;-74
2023/02/15 01:32:01;;;;;;;76.80;44.88;;;;;;;-2.00;100.00;96252.06;5079313;28;20023;-74
2023/02/15 01:34:27;;;;;;;81.90;46.40;;;;;;;-1.99;100.00;96244.38;5079398;28;20040;-74
2023/02/15 01:36:52;;;;;;;94.60;55.05;;;;;;;-2.00;100.00;96252.91;5079941;28;20028;-74
2023/02/15 01:39:17;;;;;;;93.57;53.58;;;;;;;-1.94;100.00;96265.34;5079532;28;20024;-74
2023/02/15 01:41:43;;;;;;;93.32;51.58;;;;;;;-1.99;100.00;96269.75;5079098;28;20111;-74
2023/02/15 01:44:42;;;;;;;95.03;52.30;;;;;;;-2.02;100.00;96269.88;5065438;28;20544;-74
2023/02/15 01:47:09;;;;;;;89.13;49.45;;;;;;;-2.14;100.00;96260.25;5077491;28;20043;-74
2023/02/15 01:49:35;;;;;;;89.53;48.33;;;;;;;-2.19;100.00;96252.00;5066845;28;20512;-74
2023/02/15 01:52:01;;;;;;;82.47;46.78;;;;;;;-2.23;100.00;96255.53;5079439;28;20030;-74
2023/02/15 01:54:32;;;;;;;83.55;45.35;;;;;;;-2.18;100.00;96261.25;5058326;28;20490;-74
2023/02/15 01:57:04;;;;;;;85.25;47.38;;;;;;;-2.14;100.00;96265.31;5080083;28;20028;-74
2023/02/15 01:59:32;;;;;;;84.85;49.15;;;;;;;-1.90;100.00;96269.41;5077535;28;20438;-74
2023/02/15 02:01:58;;;;;;;90.22;51.30;;;;;;;-1.99;100.00;96269.75;5058537;28;20032;-74
2023/02/15 02:04:25;;;;;;;95.40;52.20;;;;;;;-2.08;100.00;96265.06;5089680;28;20016;-74
2023/02/15 02:06:52;;;;;;;92.90;52.03;;;;;;;-2.09;100.00;96265.97;5079229;28;20023;-74
2023/02/15 02:09:18;;;;;;;102.15;53.95;;;;;;;-2.12;100.00;96255.94;5076832;28;20496;-74
2023/02/15 02:11:46;;;;;;;123.40;60.35;;;;;;;-2.13;100.00;96256.84;5094451;28;20497;-74
2023/02/15 02:14:11;;;;;;;107.40;58.75;;;;;;;-2.19;100.00;96264.69;5061003;28;20024;-74
2023/02/15 02:16:54;;;;;;;114.40;59.13;;;;;;;-2.19;100.00;96267.22;5077918;28;20042;-75
2023/02/15 02:19:46;;;;;;;109.30;56.45;;;;;;;-2.22;100.00;96268.19;5078172;28;20035;-74
2023/02/15 02:22:54;;;;;;;113.55;59.03;;;;;;;-2.30;100.00;96264.28;5057006;28;20785;-74
2023/02/15 02:25:27;;;;;;;92.45;49.35;;;;;;;-2.24;100.00;96285.16;5076721;28;20417;-74
2023/02/15 02:28:30;;;;;;;103.28;54.42;;;;;;;-2.51;100.00;96275.28;5077204;28;20035;-74
2023/02/15 02:31:28;;;;;;;94.95;52.25;;;;;;;-2.47;100.00;96284.41;5078395;28;20473;-74
2023/02/15 02:34:08;;;;;;;120.00;73.13;;;;;;;-2.27;100.00;96299.66;5078289;28;20485;-73
2023/02/15 02:36:41;;;;;;;115.00;63.25;;;;;;;-2.41;100.00;96292.59;5079383;28;20043;-75
2023/02/15 02:39:10;;;;;;;98.97;56.40;;;;;;;-2.40;100.00;96298.50;5076660;28;20413;-76
2023/02/15 02:41:49;;;;;;;115.10;59.33;;;;;;;-2.25;100.00;96302.97;5079755;28;20514;-75
2023/02/15 02:44:43;;;;;;;115.82;61.50;;;;;;;-1.90;100.00;96315.09;5077087;28;20024;-76
2023/02/15 02:47:26;;;;;;;103.55;57.13;;;;;;;-1.88;100.00;96310.75;5076674;28;20055;-75
2023/02/15 02:49:58;;;;;;;109.68;57.85;;;;;;;-2.00;100.00;96326.50;5078030;28;20017;-76
2023/02/15 02:52:37;;;;;;;95.82;52.67;;;;;;;-2.10;100.00;96322.66;5076455;28;20043;-75
2023/02/15 02:55:13;;;;;;;100.13;54.15;;;;;;;-2.13;100.00;96322.78;5077863;28;20492;-75
2023/02/15 02:58:02;;;;;;;96.72;53.63;;;;;;;-2.11;100.00;96321.00;5076986;28;20073;-76
2023/02/15 03:00:31;;;;;;;106.72;56.13;;;;;;;-2.15;100.00;96317.75;5077400;28;20058;-75
2023/02/15 03:03:04;;;;;;;101.63;57.50;;;;;;;-2.19;100.00;96331.47;5077724;28;20028;-76
2023/02/15 03:05:30;;;;;;;99.90;54.83;;;;;;;-2.24;100.00;96332.50;5076355;28;20028;-76
2023/02/15 03:08:00;;;;;;;89.63;51.47;;;;;;;-2.20;100.00;96331.50;5077450;28;20051;-76
2023/02/15 03:10:27;;;;;;;101.47;52.83;;;;;;;-2.24;100.00;96342.66;5067991;28;20149;-76
2023/02/15 03:12:54;;;;;;;89.00;51.28;;;;;;;-2.21;100.00;96345.06;5083531;28;20036;-76
2023/02/15 03:15:22;;;;;;;94.72;53.13;;;;;;;-2.10;100.00;96347.19;5071272;28;20278;-76
2023/02/15 03:17:52;;;;;;;99.03;56.08;;;;;;;-1.95;100.00;96360.09;5068372;28;20028;-76
2023/02/15 03:20:25;;;;;;;100.78;58.15;;;;;;;-1.88;100.00;96348.84;5060571;28;20733;-75
2023/02/15 03:22:55;;;;;;;100.88;57.00;;;;;;;-1.92;100.00;96349.84;5076011;28;20485;-75
2023/02/15 03:25:21;;;;;;;;;;;;;;;-1.90;100.00;96362.47;5057540;28;20893;-75
2023/02/15 03:27:59;;;;;;;98.82;54.92;;;;;;;-1.74;100.00;96366.06;5080344;28;19920;-75
2023/02/15 03:30:25;;;;;;;98.63;55.03;;;;;;;-1.72;100.00;96359.19;5053409;28;20032;-75
2023/02/15 03:32:51;;;;;;;102.72;56.15;;;;;;;-1.72;100.00;96352.41;5073331;28;20080;-76
2023/02/15 03:35:16;;;;;;;97.38;54.90;;;;;;;-1.55;100.00;96359.34;5076266;28;20031;-76
2023/02/15 03:37:46;;;;;;;94.97;54.88;;;;;;;-1.64;100.00;96352.91;5077150;28;20024;-76
2023/02/15 03:43:14;;;;;;;97.60;53.90;;;;;;;-1.69;100.00;96370.06;5076995;28;20116;-75
2023/02/15 03:45:54;;;;;;;90.88;52.47;;;;;;;-1.67;100.00;96360.66;5077723;28;20028;-75
2023/02/15 03:48:29;;;;;;;101.35;54.95;;;;;;;-1.63;100.00;96374.03;5075728;28;20117;-76
2023/02/15 03:53:43;;;;;;;84.50;51.50;;;;;;;-1.72;100.00;96382.03;5076173;28;20046;-76
2023/02/15 03:56:08;;;;;;;92.10;52.53;;;;;;;-1.78;100.00;96387.38;5075971;28;20852;-76
2023/02/15 04:04:17;;;;;;;88.82;50.83;;;;;;;-1.81;100.00;96398.47;5076944;28;20035;-76
2023/02/15 04:06:43;;;;;;;86.43;51.40;;;;;;;-1.87;100.00;96403.78;5055540;28;20525;-75
2023/02/15 04:11:52;;;;;;;92.80;52.25;;;;;;;-1.83;100.00;96387.53;5092401;28;20123;-76
2023/02/15 04:17:05;;;;;;;85.18;51.15;;;;;;;-1.84;100.00;96398.59;5077663;28;20113;-76
2023/02/15 04:25:14;;;;;;;84.55;49.53;;;;;;;-1.84;100.00;96403.66;5076392;28;20562;-75
2023/02/15 04:27:41;;;;;;;81.47;47.55;;;;;;;-1.96;100.00;96391.47;5075123;28;20488;-75
2023/02/15 04:30:08;;;;;;;81.88;48.55;;;;;;;-1.94;100.00;96402.38;5076202;28;20496;-76
2023/02/15 04:32:34;;;;;;;87.25;48.88;;;;;;;-2.04;100.00;96406.16;5075531;28;20028;-76
2023/02/15 04:35:00;;;;;;;83.93;48.35;;;;;;;-2.05;100.00;96409.56;5075699;28;20024;-76
2023/02/15 04:37:25;;;;;;;95.78;52.55;;;;;;;-2.13;100.00;96407.34;5075788;28;20024;-76
2023/02/15 04:39:52;;;;;;;88.28;50.55;;;;;;;-2.13;100.00;96409.88;5054677;28;20085;-75
2023/02/15 04:42:18;;;;;;;86.65;50.47;;;;;;;-2.29;100.00;96405.41;5073896;28;20034;-76
2023/02/15 04:44:43;;;;;;;87.28;51.92;;;;;;;-2.49;100.00;96402.78;5075078;28;20031;-76
2023/02/15 04:47:08;;;;;;;89.72;51.85;;;;;;;-2.36;100.00;96412.44;5077290;28;20477;-76
2023/02/15 04:49:35;;;;;;;97.25;60.20;;;;;;;-2.48;100.00;96412.06;5075096;28;20073;-76
2023/02/15 04:52:01;;;;;;;87.90;50.72;;;;;;;-2.55;100.00;96405.56;5081151;28;20137;-76
2023/02/15 04:54:26;;;;;;;83.65;51.10;;;;;;;-2.68;100.00;96402.63;5079465;28;20539;-76
2023/02/15 04:56:51;;;;;;;87.63;50.10;;;;;;;-2.81;100.00;96399.72;5067270;28;20031;-75
2023/02/15 04:59:18;;;;;;;86.28;49.50;;;;;;;-2.70;100.00;96407.75;5060451;28;20020;-76
2023/02/15 05:01:44;;;;;;;104.85;54.67;;;;;;;-2.81;100.00;96409.84;5058816;28;20032;-76
2023/02/15 05:04:09;;;;;;;103.47;55.35;;;;;;;-2.84;100.00;96409.97;5077004;28;20036;-76
2023/02/15 05:06:35;;;;;;;117.50;61.60;;;;;;;-2.84;100.00;96422.63;5080005;28;20107;-76
2023/02/15 05:09:00;;;;;;;124.35;65.75;;;;;;;-2.84;100.00;96411.66;5081139;28;20874;-76
2023/02/15 05:11:26;;;;;;;162.88;80.25;;;;;;;-2.77;100.00;96419.00;5093031;28;20123;-76
2023/02/15 05:13:51;;;;;;;166.10;83.78;;;;;;;-2.74;100.00;96416.38;5058714;28;20051;-76
2023/02/15 05:16:17;;;;;;;128.75;64.18;;;;;;;-2.59;100.00;96417.50;5074560;28;20077;-76
2023/02/15 05:18:43;;;;;;;91.70;51.70;;;;;;;-2.60;100.00;96422.66;5079839;28;20401;-76
2023/02/15 05:21:08;;;;;;;88.75;48.25;;;;;;;-2.60;100.00;96428.53;5055119;28;20044;-75
2023/02/15 05:23:34;;;;;;;80.55;44.00;;;;;;;-2.51;100.00;96432.47;5077369;28;20024;-76
2023/02/15 05:28:43;;;;;;;90.50;50.30;;;;;;;-2.51;100.00;96429.91;5080222;28;20451;-75
2023/02/15 05:31:14;;;;;;;96.60;52.47;;;;;;;-2.60;100.00;96432.78;5055803;28;20516;-76
2023/02/15 05:33:40;;;;;;;103.82;59.38;;;;;;;-2.56;100.00;96441.91;5078938;28;20038;-76
2023/02/15 05:36:06;;;;;;;89.50;51.75;;;;;;;-2.52;100.00;96440.94;5076688;28;20024;-76
2023/02/15 05:38:32;;;;;;;139.93;81.20;;;;;;;-2.49;100.00;96435.75;5059017;28;20119;-75
2023/02/15 05:40:57;;;;;;;134.10;69.93;;;;;;;-2.71;100.00;96444.13;5069156;28;20051;-76
2023/02/15 05:43:23;;;;;;;134.60;76.60;;;;;;;-2.68;100.00;96446.56;5067747;28;20057;-76
2023/02/15 05:45:50;;;;;;;209.20;116.40;;;;;;;-2.60;100.00;96437.88;5071307;28;20044;-76
2023/02/15 05:48:16;;;;;;;186.90;103.25;;;;;;;-2.53;100.00;96429.97;5097681;28;20039;-76
2023/02/15 05:50:41;;;;;;;162.40;91.13;;;;;;;-2.40;100.00;96427.81;5097405;28;20116;-77
2023/02/15 05:53:07;;;;;;;124.53;70.60;;;;;;;-2.18;100.00;96418.50;5062208;28;20131;-76
2023/02/15 05:55:33;;;;;;;120.57;68.13;;;;;;;-2.06;100.00;96395.25;5095676;28;20023;-76
2023/02/15 05:57:58;;;;;;;109.43;64.45;;;;;;;-1.79;100.00;96394.16;5079928;28;20032;-76
2023/02/15 06:00:25;;;;;;;98.65;56.38;;;;;;;-1.73;100.00;96382.91;5078532;28;20036;-77
2023/02/15 06:02:50;;;;;;;86.97;50.58;;;;;;;-1.66;100.00;96357.22;5083555;28;20023;-76
2023/02/15 06:05:16;;;;;;;81.63;48.50;;;;;;;-1.60;100.00;96329.03;5090848;28;20020;-77
2023/02/15 06:07:45;;;;;;;90.68;52.33;;;;;;;-1.53;100.00;96323.72;5090525;28;20148;-77
2023/02/15 06:10:10;;;;;;;82.97;49.23;;;;;;;-1.47;100.00;96308.22;5082824;28;20023;-77
2023/02/15 06:12:36;;;;;;;77.65;46.90;;;;;;;-1.21;100.00;96292.69;5087518;28;20063;-77
2023/02/15 06:15:03;;;;;;;92.25;59.50;;;;;;;-0.28;100.00;96271.47;5089803;28;20390;-76
2023/02/15 06:17:29;;;;;;;77.00;50.38;;;;;;;1.10;100.00;96198.19;5086175;28;20061;-77
2023/02/15 06:19:54;;;;;;;63.63;41.10;;;;;;;0.76;100.00;96140.53;5075961;28;20788;-76
2023/02/15 06:22:20;;;;;;;62.15;39.42;;;;;;;0.96;100.00;96079.91;5064348;28;20039;-77
2023/02/15 06:24:46;;;;;;;55.92;37.67;;;;;;;1.03;100.00;96080.38;5079578;28;20114;-76
2023/02/15 06:27:11;;;;;;;63.05;41.90;;;;;;;0.63;100.00;96078.41;5092236;28;20587;-76
2023/02/15 06:29:38;;;;;;;57.30;39.58;;;;;;;1.74;100.00;96067.81;5083381;28;20027;-76
2023/02/15 06:32:04;;;;;;;64.57;42.00;;;;;;;1.86;100.00;96067.13;5077298;28;20020;-76
2023/02/15 06:34:30;;;;;;;60.10;40.28;;;;;;;2.18;100.00;96066.03;5094810;28;20032;-77
2023/02/15 06:36:55;;;;;;;55.90;38.50;;;;;;;2.49;100.00;96068.34;5060464;28;20032;-77
2023/02/15 06:39:21;;;;;;;58.00;40.97;;;;;;;3.54;100.00;96052.19;5095282;28;20513;-77
2023/02/15 06:41:46;;;;;;;55.97;39.00;;;;;;;2.70;100.00;96060.28;5092709;28;20088;-76
2023/02/15 06:44:12;;;;;;;62.30;44.08;;;;;;;3.10;100.00;96059.38;5090156;28;20073;-76
2023/02/15 06:46:37;;;;;;;76.43;55.40;;;;;;;2.86;100.00;96060.97;5079347;28;20108;-76
2023/02/15 06:49:02;;;;;;;67.13;51.08;;;;;;;4.87;100.00;96065.25;5061153;28;20474;-77
2023/02/15 06:51:28;;;;;;;70.95;53.20;;;;;;;4.00;100.00;96055.09;5077466;28;20035;-77
2023/02/15 06:53:53;;;;;;;67.80;50.40;;;;;;;4.61;100.00;96059.41;5077407;28;20032;-76
2023/02/15 06:56:19;;;;;;;63.42;48.35;;;;;;;4.03;100.00;96057.44;5081651;28;20097;-76
2023/02/15 06:58:45;;;;;;;64.03;46.70;;;;;;;3.04;100.00;96058.06;5083527;28;20027;-76
2023/02/15 07:01:11;;;;;;;61.65;44.45;;;;;;;3.17;100.00;96053.78;5080946;28;20141;-76
2023/02/15 07:03:37;;;;;;;64.20;46.38;;;;;;;3.11;100.00;96056.72;5074285;28;20130;-76
2023/02/15 07:06:05;;;;;;;66.93;45.13;;;;;;;3.00;100.00;96064.28;5093866;28;20027;-76
2023/02/15 07:08:31;;;;;;;67.40;45.33;;;;;;;3.06;100.00;96068.16;5086074;28;20407;-76
2023/02/15 07:12:41;;;;;;;60.40;42.25;;;;;;;3.43;100.00;96062.34;5077288;28;20059;-76
2023/02/15 07:13:45;;;;;;;63.13;44.00;;;;;;;4.02;100.00;96060.94;5077192;28;20044;-76
2023/02/15 07:16:11;;;;;;;65.00;47.22;;;;;;;3.89;100.00;96069.53;5080615;28;20777;-76
2023/02/15 07:18:37;;;;;;;60.47;44.60;;;;;;;3.59;100.00;96060.41;5096635;28;20106;-76
2023/02/15 07:21:03;;;;;;;63.95;44.38;;;;;;;3.66;100.00;96064.19;5078068;28;20031;-76
2023/02/15 07:23:28;;;;;;;62.22;45.22;;;;;;;4.07;100.00;96052.94;5085746;28;20501;-75
2023/02/15 07:25:58;;;;;;;62.90;44.60;;;;;;;4.00;100.00;96054.28;5087063;28;20016;-75
2023/02/15 07:28:24;;;;;;;55.70;39.03;;;;;;;4.45;100.00;96053.69;5081377;28;20048;-75
2023/02/15 07:30:49;;;;;;;58.42;42.45;;;;;;;4.68;100.00;96058.06;5078086;28;20071;-75
2023/02/15 07:33:23;;;;;;;66.35;45.80;;;;;;;7.27;95.57;96065.84;5058414;28;20032;-75
2023/02/15 07:35:50;;;;;;;54.83;40.55;;;;;;;8.00;87.30;96055.50;5078912;28;20028;-76
2023/02/15 07:38:17;;;;;;;56.90;43.47;;;;;;;9.58;75.57;96055.53;5074978;28;20479;-75
2023/02/15 07:40:42;;;;;;;52.55;41.60;;;;;;;9.28;65.34;96043.53;5069133;28;20121;-76
2023/02/15 07:43:08;;;;;;;55.97;42.90;;;;;;;8.06;75.75;96054.19;5070270;28;20024;-76
2023/02/15 07:45:33;;;;;;;50.92;41.80;;;;;;;8.30;72.20;96060.72;5076125;28;21137;-75
2023/02/15 07:48:01;;;;;;;55.10;40.15;;;;;;;6.74;80.21;96060.59;5076368;28;20044;-75
2023/02/15 07:50:26;;;;;;;52.55;38.67;;;;;;;6.55;85.22;96059.59;5058731;28;20027;-76
2023/02/15 07:52:53;;;;;;;50.22;38.28;;;;;;;6.63;86.89;96064.97;5076513;28;20054;-75
2023/02/15 07:55:19;;;;;;;52.38;39.22;;;;;;;7.58;80.36;96064.22;5090840;28;20485;-76
2023/02/15 07:57:45;;;;;;;53.58;41.55;;;;;;;7.61;77.50;96056.22;5078965;27;20123;-76
2023/02/15 08:00:16;;;;;;;58.65;45.60;;;;;;;7.84;76.00;96055.13;5076119;28;20031;-76
2023/02/15 08:02:42;;;;;;;54.17;42.78;;;;;;;8.51;71.73;96046.97;5065809;28;20020;-77
2023/02/15 08:05:08;;;;;;;50.17;39.67;;;;;;;10.45;63.79;96045.81;5095715;28;20124;-77
2023/02/15 08:07:33;;;;;;;45.33;38.53;;;;;;;11.63;57.19;96045.59;5075150;28;20024;-77
2023/02/15 08:10:01;;;;;;;46.50;37.80;;;;;;;11.90;54.71;96047.31;5078741;28;20043;-86
2023/02/15 08:12:27;;;;;;;46.67;38.10;;;;;;;11.47;59.03;96039.44;5068896;28;20501;-88
2023/02/15 08:14:53;;;;;;;40.00;35.40;;;;;;;15.61;46.68;96030.88;5076625;28;20528;-88
2023/02/15 08:17:18;;;;;;;40.15;35.70;;;;;;;14.44;47.93;96035.41;5055259;28;20117;-86
2023/02/15 08:19:43;;;;;;;41.72;37.22;;;;;;;14.28;48.12;96038.00;5058449;28;20032;-84
2023/02/15 08:22:12;;;;;;;37.08;33.17;;;;;;;15.35;47.03;96034.81;5074448;28;20032;-85
2023/02/15 08:24:37;;;;;;;39.28;35.00;;;;;;;15.22;46.29;96032.75;5057230;28;20528;-87
2023/02/15 08:27:04;;;;;;;40.00;35.80;;;;;;;14.05;47.41;96032.69;5078659;28;20035;-85
2023/02/15 08:29:31;;;;;;;37.90;33.83;;;;;;;14.74;47.18;96033.81;5063338;28;20043;-85
2023/02/15 08:32:01;;;;;;;40.53;32.35;;;;;;;13.83;48.61;96035.94;5058454;28;20081;-85
2023/02/15 08:34:28;;;;;;;36.40;32.25;;;;;;;14.33;47.33;96027.91;5057899;28;20089;-85
2023/02/15 08:36:53;;;;;;;34.60;31.10;;;;;;;15.61;45.55;96025.66;5053769;28;20055;-88
2023/02/15 08:39:19;;;;;;;36.72;32.65;;;;;;;13.81;49.51;96034.47;5055056;28;20063;-85
2023/02/15 08:41:46;;;;;;;34.45;30.83;;;;;;;11.60;51.13;96037.28;5053756;28;20063;-86
2023/02/15 08:44:12;;;;;;;34.38;29.98;;;;;;;11.53;56.05;96029.28;5057318;28;20530;-89
2023/02/15 09:01:22;;;;;;;23.75;21.25;;;;;;;7.25;67.73;95987.88;5713133;22;19941;-82
2023/02/15 09:06:24;;;;;;;24.20;21.70;;;;;;;14.66;48.22;96034.66;5740356;22;20058;-89
2023/02/15 09:16:36;;;;;;;27.05;23.10;;;;;;;14.74;47.66;96033.81;5566403;23;20050;-86
2023/02/15 09:19:04;;;;;;;28.33;25.33;;;;;;;15.39;46.15;96031.66;4961269;28;20133;-85
2023/02/15 09:21:31;;;;;;;24.98;22.52;;;;;;;14.25;47.65;96031.31;4962638;28;20316;-87
2023/02/15 09:23:59;;;;;;;23.15;20.88;;;;;;;12.43;51.34;96039.34;4946861;28;20034;-85
2023/02/15 09:26:26;;;;;;;25.07;22.67;;;;;;;14.15;47.69;96035.91;5586514;23;20051;-78
2023/02/15 09:28:55;;;;;;;23.10;20.90;;;;;;;14.64;45.65;96030.59;4977082;28;20293;-78
2023/02/15 09:31:23;;;;;;;23.70;21.30;;;;;;;14.90;45.01;96032.94;4985552;28;20030;-80
2023/02/15 09:33:48;;;;;;;21.80;19.70;;;;;;;16.09;43.23;96023.63;4991655;28;20483;-79
2023/02/15 09:36:24;;;;;;;22.08;20.02;;;;;;;14.89;45.43;96029.53;4961810;28;20042;-79
2023/02/15 09:38:56;;;;;;;23.17;20.90;;;;;;;13.14;48.27;96025.97;4998410;28;20066;-88
2023/02/15 09:41:24;;;;;;;21.58;19.63;;;;;;;15.75;44.03;96030.13;5000517;28;20069;-78
2023/02/15 09:43:58;;;;;;;21.13;19.13;;;;;;;15.92;42.29;96022.16;5001267;28;20033;-79
2023/02/15 09:46:36;;;;;;;19.92;18.15;;;;;;;15.42;42.99;96007.81;4999539;28;20543;-79
2023/02/15 09:49:37;;;;;;;19.48;17.77;;;;;;;13.54;45.73;96018.22;4978308;28;20137;-83
2023/02/15 09:52:22;;;;;;;20.55;18.60;;;;;;;12.26;48.44;96018.63;4941342;29;20027;-76
2023/02/15 09:54:53;;;;;;;20.95;18.95;;;;;;;10.84;52.49;96013.59;4978483;28;20401;-77
2023/02/15 09:57:36;;;;;;;20.08;18.02;;;;;;;10.94;52.41;96008.34;4985997;28;20026;-77
2023/02/15 10:00:13;;;;;;;20.45;18.33;;;;;;;14.21;46.34;95996.16;4974583;28;20026;-78
2023/02/15 10:03:11;;;;;;;21.10;19.10;;;;;;;12.64;48.73;96012.97;4965512;28;20034;-78
2023/02/15 10:05:58;;;;;;;20.63;18.77;;;;;;;14.77;44.83;96012.59;4982530;28;20533;-77
2023/02/15 10:08:40;;;;;;;21.05;18.90;;;;;;;15.72;43.29;96006.97;4977352;28;20583;-78
2023/02/15 10:14:25;;;;;;;19.92;18.08;;;;;;;13.22;46.89;96004.38;4951985;28;20105;-79
2023/02/15 10:17:09;;;;;;;21.67;19.58;;;;;;;9.68;55.46;96007.19;4978522;28;20324;-77
2023/02/15 10:19:53;;;;;;;22.00;18.48;;;;;;;10.87;52.60;96004.69;4978075;28;20026;-77
2023/02/15 10:22:24;;;;;;;23.15;19.70;;;;;;;11.90;51.63;95995.38;4981750;28;20413;-77
2023/02/15 10:25:11;;;;;;;23.27;20.77;;;;;;;13.37;47.49;95997.53;4984914;28;20026;-77
2023/02/15 10:27:46;;;;;;;22.38;20.08;;;;;;;13.73;47.48;95999.66;4980798;28;20093;-77
2023/02/15 10:30:14;;;;;;;23.75;21.27;;;;;;;16.41;42.91;95985.88;4963709;28;20500;-77
2023/02/15 10:33:01;;;;;;;23.60;21.17;;;;;;;12.83;47.75;95994.50;4985691;28;20025;-77
2023/02/15 10:35:46;;;;;;;23.30;20.05;;;;;;;10.23;54.72;95984.88;4965973;28;20089;-77
2023/02/15 10:38:44;;;;;;;21.50;19.20;;;;;;;10.11;54.38;95991.16;4943958;28;20134;-77
2023/02/15 10:41:18;;;;;;;24.25;20.05;;;;;;;10.07;55.74;95982.03;4931228;28;20157;-76
2023/02/15 10:44:15;;;;;;;25.08;22.30;;;;;;;11.05;53.98;95977.81;4956172;28;20499;-76
2023/02/15 10:46:46;;;;;;;23.48;20.75;;;;;;;10.17;56.93;95971.66;4968254;28;20122;-76
2023/02/15 10:49:15;;;;;;;23.80;21.05;;;;;;;9.84;57.49;95975.56;4974144;28;20035;-77
2023/02/15 10:51:58;;;;;;;23.60;20.92;;;;;;;9.98;57.04;95970.78;4968574;28;20045;-77
2023/02/15 10:54:39;;;;;;;27.20;22.17;;;;;;;9.67;58.11;95974.50;4963093;28;20031;-78
2023/02/15 10:57:13;;;;;;;25.23;21.20;;;;;;;10.46;56.87;95967.19;4967362;28;20403;-76
2023/02/15 10:59:55;;;;;;;25.00;22.33;;;;;;;9.66;60.58;95972.91;4973678;28;20038;-77
2023/02/15 11:02:30;;;;;;;26.38;20.88;;;;;;;10.21;58.08;95967.84;4963569;28;20066;-77
2023/02/15 11:05:33;;;;;;;25.33;21.90;;;;;;;9.58;58.69;95977.94;4963515;28;20035;-79
2023/02/15 11:08:00;;;;;;;23.33;20.52;;;;;;;9.16;59.61;95966.28;4970412;28;20093;-76
2023/02/15 11:10:47;;;;;;;23.50;20.88;;;;;;;9.13;61.48;95974.31;4947612;28;20097;-76
2023/02/15 11:13:18;;;;;;;25.75;20.25;;;;;;;9.44;58.39;95974.00;4970980;28;21054;-76
2023/02/15 11:15:55;;;;;;;25.17;21.52;;;;;;;9.57;59.29;95970.34;4953336;28;20030;-77
2023/02/15 11:18:30;;;;;;;26.75;21.55;;;;;;;9.66;59.31;95972.91;4976856;28;20038;-76
2023/02/15 11:21:21;;;;;;;27.40;22.17;;;;;;;8.87;60.07;95972.25;4978863;28;20030;-76
2023/02/15 11:23:47;;;;;;;34.92;23.33;;;;;;;8.91;60.09;95965.88;4962571;28;20058;-76
2023/02/15 11:26:24;;;;;;;24.52;21.63;;;;;;;8.82;61.85;95966.69;4982615;28;20097;-76
2023/02/15 11:28:57;;;;;;;27.05;22.38;;;;;;;8.95;61.49;95967.25;4977755;28;20023;-77
2023/02/15 11:31:26;;;;;;;26.63;23.02;;;;;;;8.79;60.75;95958.41;4979579;28;20041;-76
2023/02/15 11:33:57;;;;;;;25.75;22.15;;;;;;;8.79;62.29;95964.38;4963988;28;20030;-76
2023/02/15 11:36:28;;;;;;;28.38;23.48;;;;;;;9.19;60.99;95964.25;4945558;28;20082;-76
2023/02/15 11:39:20;;;;;;;26.85;21.80;;;;;;;9.15;60.67;95962.88;4948618;28;20038;-76
2023/02/15 11:41:53;;;;;;;27.20;22.80;;;;;;;9.29;60.24;95959.06;4958614;28;20535;-76
2023/02/15 11:44:23;;;;;;;27.48;22.88;;;;;;;8.93;60.60;95957.97;4967263;28;20715;-76
2023/02/15 11:46:49;;;;;;;;;;;;;;;9.08;59.13;95953.25;4950614;28;20117;-77
2023/02/15 11:49:33;;;;;;;26.23;21.63;;;;;;;9.06;60.28;95960.28;4947877;28;19918;-75
2023/02/15 11:52:03;;;;;;;25.58;22.65;;;;;;;8.77;61.40;95958.53;4964983;28;20053;-76
2023/02/15 11:54:32;;;;;;;30.27;24.63;;;;;;;8.53;62.39;95952.94;4946930;28;20068;-76
2023/02/15 11:57:24;;;;;;;33.05;24.55;;;;;;;8.36;63.78;95948.41;4966587;28;20070;-76
2023/02/15 11:59:56;;;;;;;28.02;23.73;;;;;;;8.87;63.13;95946.44;4955177;28;20201;-77
2023/02/15 12:02:22;;;;;;;30.83;23.70;;;;;;;8.80;62.26;95940.16;4949579;28;20039;-77
2023/02/15 12:04:58;;;;;;;25.80;22.13;;;;;;;8.43;63.29;95941.78;4963519;28;20041;-76
2023/02/15 12:07:26;;;;;;;32.35;25.35;;;;;;;8.40;62.47;95942.03;4953147;28;20396;-77
2023/02/15 12:10:11;;;;;;;31.33;24.92;;;;;;;8.41;64.50;95931.56;4970878;28;20033;-76
2023/02/15 12:12:37;;;;;;;27.48;22.83;;;;;;;8.52;62.71;95930.63;4954079;28;20037;-77
2023/02/15 12:15:05;;;;;;;26.08;22.33;;;;;;;8.28;62.75;95930.19;4978987;28;20856;-76
2023/02/15 12:17:48;;;;;;;25.63;21.30;;;;;;;8.10;63.92;95922.22;4953004;28;20043;-78
2023/02/15 12:20:13;;;;;;;29.65;23.88;;;;;;;8.30;63.67;95921.38;4945807;28;20026;-76
2023/02/15 12:22:39;;;;;;;28.42;23.98;;;;;;;8.39;64.87;95922.31;4962994;28;20058;-77
2023/02/15 12:25:20;;;;;;;28.48;24.95;;;;;;;8.24;64.31;95915.88;4975007;28;20031;-77